createdAt,value
2019-04-05T00:03:42.256Z,98916.33
2019-04-05T00:08:44.322Z,98926.99
2019-04-05T00:13:46.422Z,98918.95
2019-04-05T00:18:50.433Z,98932.39
2019-04-05T00:23:54.416Z,98915.44
2019-04-05T00:28:58.430Z,98918.36
2019-04-05T00:34:02.398Z,98916.10
2019-04-05T00:39:09.512Z,98911.81
2019-04-05T00:44:11.612Z,98920.67
2019-04-05T00:49:13.701Z,98939.28
2019-04-05T00:54:15.798Z,98966.76
2019-04-05T00:59:17.854Z,98973.95
2019-04-05T01:04:19.926Z,98987.75
2019-04-05T01:09:22.023Z,98990.30
2019-04-05T01:14:24.901Z,98992.10
2019-04-05T01:19:31.081Z,98995.27
2019-04-05T01:24:33.889Z,98993.22
2019-04-05T01:29:35.939Z,98993.48
2019-04-05T01:34:38.091Z,98998.58
2019-04-05T01:39:40.168Z,99000.38
2019-04-05T01:44:43.602Z,99007.45
2019-04-05T01:49:45.679Z,99013.55
2019-04-05T01:54:47.732Z,99019.17
2019-04-05T01:59:49.763Z,99021.39
2019-04-05T02:04:52.957Z,99019.40
2019-04-05T02:09:55.468Z,99015.34
2019-04-05T02:14:57.551Z,99016.97
2019-04-05T02:19:59.636Z,99019.34
2019-04-05T02:25:01.770Z,99019.67
2019-04-05T02:30:04.575Z,99028.59
2019-04-05T02:35:07.471Z,99028.74
2019-04-05T02:40:12.229Z,99034.48
2019-04-05T02:45:16.280Z,99037.78
2019-04-05T02:50:20.104Z,99048.45
2019-04-05T02:55:24.562Z,99045.66
2019-04-05T03:00:28.218Z,99047.70
2019-04-05T03:05:30.767Z,99047.30
2019-04-05T03:11:10.472Z,99040.56
2019-04-05T03:16:17.374Z,99042.36
2019-04-05T03:21:21.122Z,99044.19
2019-04-05T03:26:26.795Z,99034.20
2019-04-05T03:31:29.210Z,99037.05
2019-04-05T03:36:31.685Z,99030.84
2019-04-05T03:41:34.051Z,99035.05
2019-04-05T03:46:36.414Z,99046.48
2019-04-05T03:51:38.969Z,99071.75
2019-04-05T03:56:41.321Z,99077.52
2019-04-05T04:01:43.743Z,99076.20
2019-04-05T04:06:46.242Z,99090.69
2019-04-05T04:11:48.320Z,99105.42
2019-04-05T04:17:13.709Z,99116.08
2019-04-05T04:22:28.634Z,99109.67
2019-04-05T04:27:31.117Z,99129.81
2019-04-05T04:32:33.630Z,99143.17
2019-04-05T04:37:36.194Z,99144.80
2019-04-05T04:42:38.641Z,99149.55
2019-04-05T04:47:42.737Z,99162.64
2019-04-05T04:52:45.720Z,99166.20
2019-04-05T04:57:47.781Z,99173.89
2019-04-05T05:02:51.521Z,99172.73
2019-04-05T05:07:54.425Z,99172.55
2019-04-05T05:12:58.192Z,99171.62
2019-04-05T05:18:00.482Z,99175.23
2019-04-05T05:23:03.085Z,99179.30
2019-04-05T05:28:05.883Z,99162.78
2019-04-05T05:33:08.209Z,99182.80
2019-04-05T05:38:10.405Z,99179.46
2019-04-05T05:43:12.438Z,99178.95
2019-04-05T05:48:14.999Z,99189.97
2019-04-05T05:53:17.287Z,99187.82
2019-04-05T05:58:19.456Z,99180.45
2019-04-05T06:03:21.530Z,99182.47
2019-04-05T06:08:23.701Z,99184.14
2019-04-05T06:13:25.867Z,99195.14
2019-04-05T06:18:27.969Z,99199.25
2019-04-05T06:23:33.945Z,99196.46
2019-04-05T06:28:34.130Z,99208.91
2019-04-05T06:33:36.308Z,99210.58
2019-04-05T06:38:38.654Z,99218.77
2019-04-05T06:43:43.666Z,99217.81
2019-04-05T06:48:45.801Z,99217.68
2019-04-05T06:53:47.945Z,99207.50
2019-04-05T06:58:50.037Z,99211.78
2019-04-05T07:03:55.076Z,99212.82
2019-04-05T07:08:56.276Z,99223.98
2019-04-05T07:13:58.362Z,99225.45
2019-04-05T07:19:00.572Z,99238.72
2019-04-05T07:24:02.812Z,99233.80
2019-04-05T07:29:05.035Z,99241.84
2019-04-05T07:34:07.151Z,99252.32
2019-04-05T07:39:09.241Z,99257.73
2019-04-05T07:44:11.358Z,99266.78
2019-04-05T07:49:13.474Z,99270.69
2019-04-05T07:54:15.582Z,99263.66
2019-04-05T07:59:20.698Z,99275.59
2019-04-05T08:04:21.681Z,99282.30
2019-04-05T08:09:25.636Z,99284.58
2019-04-05T08:14:28.159Z,99299.32
2019-04-05T08:19:30.222Z,99300.95
2019-04-05T08:24:32.446Z,99306.83
2019-04-05T08:29:34.528Z,99299.57
2019-04-05T08:34:36.641Z,99294.11
2019-04-05T08:39:38.801Z,99289.73
2019-04-05T08:44:40.891Z,99303.00
2019-04-05T08:49:43.014Z,99306.43
2019-04-05T08:54:45.149Z,99295.80
2019-04-05T08:59:47.267Z,99296.49
2019-04-05T09:04:49.610Z,99291.15
2019-04-05T09:09:51.657Z,99300.78
2019-04-05T09:14:53.720Z,99296.54
2019-04-05T09:19:57.662Z,99300.55
2019-04-05T09:24:59.755Z,99300.08
2019-04-05T09:30:01.832Z,99310.42
2019-04-05T09:35:05.954Z,99304.89
2019-04-05T09:40:09.861Z,99317.16
2019-04-05T09:45:11.913Z,99323.34
2019-04-05T09:50:14.619Z,99322.49
2019-04-05T09:55:16.727Z,99320.81
2019-04-05T10:00:22.938Z,99310.27
2019-04-05T10:05:25.054Z,99320.92
2019-04-05T10:10:27.135Z,99328.41
2019-04-05T10:15:29.155Z,99321.88
2019-04-05T10:20:31.268Z,99317.50
2019-04-05T10:25:33.452Z,99324.95
2019-04-05T10:30:35.609Z,99338.08
2019-04-05T10:35:37.694Z,99332.05
2019-04-05T10:40:39.760Z,99325.77
2019-04-05T10:45:41.805Z,99331.67
2019-04-05T10:50:43.771Z,99336.85
2019-04-05T10:55:45.933Z,99347.51
2019-04-05T11:00:48.015Z,99351.45
2019-04-05T11:05:52.252Z,99360.26
2019-04-05T11:10:54.346Z,99360.26
2019-04-05T11:15:56.390Z,99359.34
2019-04-05T11:21:01.424Z,99359.92
2019-04-05T11:26:04.344Z,99359.02
2019-04-05T11:31:06.745Z,99357.95
2019-04-05T11:36:08.804Z,99349.77
2019-04-05T11:41:11.163Z,99351.47
2019-04-05T11:46:14.500Z,99354.35
2019-04-05T11:51:16.557Z,99353.94
2019-04-05T11:56:20.106Z,99348.90
2019-04-05T12:01:30.138Z,99351.22
2019-04-05T12:06:34.962Z,99349.27
2019-04-05T12:11:36.110Z,99359.77
2019-04-05T12:16:38.166Z,99358.27
2019-04-05T12:21:40.244Z,99355.73
2019-04-05T12:26:42.801Z,99354.22
2019-04-05T12:31:45.511Z,99351.19
2019-04-05T12:36:47.644Z,99343.81
2019-04-05T12:41:49.742Z,99344.02
2019-04-05T12:46:51.827Z,99334.23
2019-04-05T12:51:53.883Z,99325.81
2019-04-05T12:56:57.882Z,99321.80
2019-04-05T13:01:59.974Z,99319.59
2019-04-05T13:07:01.999Z,99317.03
2019-04-05T13:12:04.093Z,99315.14
2019-04-05T13:17:06.260Z,99314.63
2019-04-05T13:22:08.327Z,99310.36
2019-04-05T13:27:12.506Z,99313.95
2019-04-05T13:32:17.202Z,99309.69
2019-04-05T13:37:20.823Z,99304.98
2019-04-05T13:42:23.070Z,99313.14
2019-04-05T13:47:25.148Z,99302.66
2019-04-05T13:52:27.237Z,99292.74
2019-04-05T13:57:29.304Z,99305.28
2019-04-05T14:02:31.374Z,99304.66
2019-04-05T14:07:34.337Z,99298.06
2019-04-05T14:12:37.653Z,99288.51
2019-04-05T14:17:43.996Z,99288.16
2019-04-05T14:22:44.683Z,99289.05
2019-04-05T14:27:46.758Z,99287.37
2019-04-05T14:32:51.472Z,99281.03
2019-04-05T14:37:54.516Z,99280.64
2019-04-05T14:42:57.523Z,99284.55
2019-04-05T14:47:59.577Z,99282.92
2019-04-05T14:53:02.018Z,99284.45
2019-04-05T14:58:06.020Z,99287.30
2019-04-05T15:03:08.430Z,99287.30
2019-04-05T15:08:10.537Z,99283.78
2019-04-05T15:13:12.634Z,99280.83
2019-04-05T15:18:14.728Z,99276.88
2019-04-05T15:23:16.824Z,99277.58
2019-04-05T15:28:18.903Z,99274.41
2019-04-05T15:33:21.046Z,99269.92
2019-04-05T15:38:23.147Z,99277.27
2019-04-05T15:43:25.236Z,99270.98
2019-04-05T15:48:27.375Z,99275.33
2019-04-05T15:53:32.609Z,99272.95
2019-04-05T15:58:34.862Z,99274.30
2019-04-05T16:03:37.097Z,99269.89
2019-04-05T16:08:39.349Z,99266.59
2019-04-05T16:13:41.470Z,99267.25
2019-04-05T16:18:44.132Z,99266.77
2019-04-05T16:23:46.332Z,99259.85
2019-04-05T16:28:48.423Z,99258.61
2019-04-05T16:33:50.478Z,99261.30
2019-04-05T16:38:52.588Z,99249.23
2019-04-05T16:43:54.676Z,99248.38
2019-04-05T16:48:56.729Z,99256.34
2019-04-05T16:54:03.489Z,99253.59
2019-04-05T16:59:05.799Z,99260.00
2019-04-05T17:04:17.867Z,99266.91
2019-04-05T17:09:20.046Z,99269.34
2019-04-05T17:14:23.347Z,99265.32
2019-04-05T17:19:25.826Z,99256.33
2019-04-05T17:24:27.957Z,99252.83
2019-04-05T17:29:30.016Z,99259.45
2019-04-05T17:34:32.271Z,99266.04
2019-04-05T17:39:34.391Z,99264.33
2019-04-05T17:44:36.873Z,99264.46
2019-04-05T17:49:41.076Z,99265.70
2019-04-05T17:54:43.204Z,99277.62
2019-04-05T17:59:45.380Z,99288.12
2019-04-05T18:04:47.484Z,99292.53
2019-04-05T18:09:49.653Z,99290.35
2019-04-05T18:14:51.753Z,99307.36
2019-04-05T18:19:53.910Z,99308.13
2019-04-05T18:24:55.974Z,99304.71
2019-04-05T18:29:58.081Z,99303.45
2019-04-05T18:35:00.186Z,99302.66
2019-04-05T18:40:02.262Z,99310.77
2019-04-05T18:45:05.272Z,99302.61
2019-04-05T18:50:08.184Z,99303.81
2019-04-05T18:55:10.436Z,99304.02
2019-04-05T19:00:12.754Z,99301.55
2019-04-05T19:05:15.087Z,99305.18
2019-04-05T19:10:17.203Z,99298.13
2019-04-05T19:15:19.379Z,99300.77
2019-04-05T19:20:21.447Z,99301.29
2019-04-05T19:25:23.534Z,99301.69
2019-04-05T19:50:41.632Z,99309.81
2019-04-05T19:55:43.723Z,99316.95
2019-04-05T20:00:45.913Z,99314.87
2019-04-05T20:05:48.017Z,99318.51
2019-04-05T20:10:50.080Z,99320.85
2019-04-05T20:15:52.163Z,99322.02
2019-04-05T20:20:54.267Z,99319.08
2019-04-05T20:25:56.351Z,99317.46
2019-04-05T20:30:58.519Z,99316.81
2019-04-05T20:36:00.618Z,99316.34
2019-04-05T20:41:02.767Z,99314.87
2019-04-05T20:46:04.853Z,99322.61
2019-04-05T20:51:06.898Z,99321.41
2019-04-05T20:56:09.018Z,99319.97
2019-04-05T21:01:11.111Z,99320.45
2019-04-05T21:06:13.222Z,99326.17
2019-04-05T21:11:15.479Z,99328.98
2019-04-05T21:16:17.556Z,99332.42
2019-04-05T21:21:19.701Z,99334.55
2019-04-05T21:26:21.784Z,99337.32
2019-04-05T21:31:23.861Z,99331.75
2019-04-05T21:36:25.908Z,99335.21
2019-04-05T21:41:27.973Z,99334.86
2019-04-05T21:46:30.026Z,99340.44
2019-04-05T21:51:32.081Z,99339.45
2019-04-05T21:56:34.209Z,99342.73
2019-04-05T22:01:36.831Z,99340.26
2019-04-05T22:06:38.865Z,99350.09
2019-04-05T22:11:40.819Z,99359.22
2019-04-05T22:16:42.897Z,99361.37
2019-04-05T22:21:45.040Z,99363.48
2019-04-05T22:26:48.333Z,99355.44
2019-04-05T22:31:50.446Z,99359.36
2019-04-05T22:36:52.496Z,99360.67
2019-04-05T22:41:54.641Z,99355.58
2019-04-05T22:46:56.732Z,99361.14
2019-04-05T22:51:58.878Z,99363.91
2019-04-05T22:57:01.002Z,99368.34
2019-04-05T23:02:03.141Z,99369.83
2019-04-05T23:07:05.290Z,99365.73
2019-04-05T23:12:07.415Z,99379.00
2019-04-05T23:17:09.437Z,99382.09
2019-04-05T23:22:11.643Z,99380.13
2019-04-05T23:27:13.715Z,99376.02
2019-04-05T23:32:15.830Z,99370.63
2019-04-05T23:37:17.927Z,99384.20
2019-04-05T23:42:20.043Z,99383.02
2019-04-05T23:47:22.128Z,99400.67
2019-04-05T23:52:24.236Z,99403.89
2019-04-05T23:57:26.348Z,99410.95
